Time;durP1;ratioP1;P1;durP2;ratioP2;P2;SDS_P1;SDS_P2;PMS_P1;PMS_P2;Temp;Humidity;BMP_temperature;BMP_pressure;BME280_temperature;BME280_humidity;BME280_pressure;Samples;Min_cycle;Max_cycle;Signal;HPM_P1;HPM_P2
2023/02/05 00:01:25;;;;;;;9.00;4.32;;;5.50;99.90;;;;;;5008975;28;20106;-49
2023/02/05 00:03:51;;;;;;;15.93;5.20;;;5.50;99.90;;;;;;5008430;28;20038;-51
2023/02/05 00:06:17;;;;;;;12.32;5.82;;;5.50;99.90;;;;;;4992516;28;20543;-52
2023/02/05 00:08:42;;;;;;;11.77;5.22;;;5.50;99.90;;;;;;5008629;28;20034;-48
2023/02/05 00:11:08;;;;;;;12.10;4.97;;;5.50;99.90;;;;;;5008219;28;20409;-49
2023/02/05 00:13:38;;;;;;;10.70;5.00;;;5.50;99.90;;;;;;5008179;28;20036;-48
2023/02/05 00:16:13;;;;;;;18.20;6.45;;;5.50;99.90;;;;;;5008705;28;20026;-49
2023/02/05 00:18:38;;;;;;;14.75;5.85;;;5.50;99.90;;;;;;5023103;28;20598;-53
2023/02/05 00:21:05;;;;;;;11.00;5.72;;;5.50;99.90;;;;;;5008741;28;20110;-50
2023/02/05 00:23:31;;;;;;;14.40;5.60;;;5.40;99.90;;;;;;5008947;28;20068;-51
2023/02/05 00:25:56;;;;;;;24.58;6.47;;;5.30;99.90;;;;;;5012057;28;20057;-52
2023/02/05 00:28:22;;;;;;;13.40;6.85;;;5.30;99.90;;;;;;5011408;28;20033;-52
2023/02/05 00:30:47;;;;;;;15.20;5.72;;;5.10;99.90;;;;;;5011726;28;20095;-51
2023/02/05 00:33:13;;;;;;;13.07;6.68;;;5.00;99.90;;;;;;5011564;28;20083;-53
2023/02/05 00:35:41;;;;;;;18.90;6.63;;;4.90;99.90;;;;;;5041841;22;20041;-52
2023/02/05 00:38:06;;;;;;;15.63;5.13;;;4.80;99.90;;;;;;5012087;28;20088;-53
2023/02/05 00:40:32;;;;;;;14.85;6.80;;;4.70;99.90;;;;;;5014852;28;20482;-53
2023/02/05 00:42:57;;;;;;;12.00;6.13;;;4.80;99.90;;;;;;5014108;28;20029;-56
2023/02/05 00:45:23;;;;;;;15.98;6.60;;;4.70;99.90;;;;;;5014701;28;20026;-53
2023/02/05 00:47:48;;;;;;;10.63;6.45;;;4.70;99.90;;;;;;5014430;28;20025;-59
2023/02/05 00:50:14;;;;;;;18.23;6.90;;;4.70;99.90;;;;;;4996783;28;20537;-55
2023/02/05 00:52:40;;;;;;;20.50;6.85;;;4.70;99.90;;;;;;5014116;28;20057;-53
2023/02/05 00:55:06;;;;;;;14.45;6.82;;;4.70;99.90;;;;;;5014073;28;20123;-56
2023/02/05 00:57:31;;;;;;;15.60;6.97;;;4.70;99.90;;;;;;5014022;28;20111;-54
2023/02/05 00:59:57;;;;;;;14.25;7.22;;;4.60;99.90;;;;;;5014281;28;20022;-51
2023/02/05 01:02:23;;;;;;;15.15;6.88;;;4.60;99.90;;;;;;5013937;28;20025;-53
2023/02/05 01:04:50;;;;;;;17.35;7.97;;;4.50;99.90;;;;;;5013952;28;20033;-53
2023/02/05 01:07:19;;;;;;;17.58;7.32;;;4.50;99.90;;;;;;5013966;28;20052;-51
2023/02/05 01:09:45;;;;;;;9.60;6.35;;;4.50;99.90;;;;;;5013740;28;20037;-51
2023/02/05 01:12:13;;;;;;;18.90;6.93;;;4.60;99.90;;;;;;5013767;28;20018;-53
2023/02/05 01:14:39;;;;;;;19.80;6.88;;;4.60;99.90;;;;;;5013751;28;20041;-51
2023/02/05 01:17:05;;;;;;;12.75;7.03;;;4.70;99.90;;;;;;5013706;28;20125;-55
2023/02/05 01:19:33;;;;;;;15.15;6.75;;;4.70;99.90;;;;;;5013751;28;20134;-55
2023/02/05 01:21:58;;;;;;;11.45;5.90;;;4.70;99.90;;;;;;5013783;28;20053;-56
2023/02/05 01:24:24;;;;;;;9.88;5.78;;;4.80;99.90;;;;;;5013475;28;20056;-55
2023/02/05 01:26:50;;;;;;;14.10;6.25;;;4.80;99.90;;;;;;4995931;28;20022;-50
2023/02/05 01:29:15;;;;;;;13.70;5.72;;;4.80;99.90;;;;;;5014048;28;20034;-57
2023/02/05 01:31:41;;;;;;;10.10;5.50;;;4.80;99.90;;;;;;5013607;28;20048;-55
2023/02/05 01:34:06;;;;;;;10.63;5.72;;;4.90;99.90;;;;;;5013177;28;20041;-56
2023/02/05 01:36:32;;;;;;;11.45;5.38;;;4.90;99.90;;;;;;5013391;28;20463;-54
2023/02/05 01:38:57;;;;;;;9.75;4.95;;;4.90;99.90;;;;;;5013682;28;20444;-54
2023/02/05 01:41:24;;;;;;;11.38;4.78;;;5.00;99.90;;;;;;5013173;28;20490;-54
2023/02/05 01:44:11;;;;;;;16.77;5.82;;;5.00;99.90;;;;;;4995194;28;20026;-55
2023/02/05 01:46:40;;;;;;;13.30;5.68;;;5.00;99.90;;;;;;5013415;28;20481;-55
2023/02/05 01:49:08;;;;;;;13.85;4.78;;;5.10;99.90;;;;;;5013195;28;20033;-52
2023/02/05 01:51:36;;;;;;;13.35;5.05;;;5.10;99.90;;;;;;4995495;28;20022;-55
2023/02/05 01:54:02;;;;;;;11.27;4.35;;;5.10;99.90;;;;;;5013266;28;20033;-49
2023/02/05 01:56:40;;;;;;;11.75;6.60;;;5.10;99.90;;;;;;5012880;28;20022;-49
2023/02/05 01:59:14;;;;;;;14.75;5.38;;;5.10;99.90;;;;;;5011615;28;20029;-49
2023/02/05 02:01:40;;;;;;;15.80;6.70;;;5.10;99.90;;;;;;4995352;28;20034;-49
2023/02/05 02:04:08;;;;;;;19.95;6.65;;;5.00;99.90;;;;;;5011329;28;20401;-51
2023/02/05 02:06:35;;;;;;;15.93;5.45;;;4.90;99.90;;;;;;5012642;28;20101;-54
2023/02/05 02:09:02;;;;;;;17.02;6.70;;;4.90;99.90;;;;;;4995129;28;20497;-54
2023/02/05 02:11:31;;;;;;;11.85;6.68;;;4.90;99.90;;;;;;5012769;28;20428;-53
2023/02/05 02:13:59;;;;;;;11.45;6.00;;;4.80;99.90;;;;;;4994921;28;20026;-55
2023/02/05 02:16:27;;;;;;;15.57;6.10;;;4.80;99.90;;;;;;5013159;28;20497;-55
2023/02/05 02:18:53;;;;;;;11.90;5.65;;;4.80;99.90;;;;;;5012320;28;20030;-49
2023/02/05 02:21:37;;;;;;;15.30;6.32;;;4.60;99.90;;;;;;5012526;28;20421;-49
2023/02/05 02:24:25;;;;;;;15.13;7.55;;;4.50;99.90;;;;;;5012300;28;20022;-51
2023/02/05 02:27:09;;;;;;;14.80;7.15;;;4.40;99.90;;;;;;5012294;28;20022;-50
2023/02/05 02:29:40;;;;;;;19.40;7.82;;;4.30;99.90;;;;;;5012522;28;20052;-51
2023/02/05 02:32:20;;;;;;;13.70;6.47;;;4.30;99.90;;;;;;5012593;28;20026;-52
2023/02/05 02:34:54;;;;;;;17.58;6.80;;;4.40;99.90;;;;;;5012193;28;20037;-50
2023/02/05 02:37:26;;;;;;;19.15;6.55;;;4.40;99.90;;;;;;5012222;28;20038;-52
2023/02/05 02:40:10;;;;;;;13.02;6.82;;;4.40;99.90;;;;;;5012390;28;20053;-51
2023/02/05 02:43:16;;;;;;;10.85;6.32;;;4.30;99.90;;;;;;5011972;28;20022;-50
2023/02/05 02:46:17;;;;;;;17.30;5.50;;;4.40;99.90;;;;;;5009363;28;20302;-51
2023/02/05 02:48:46;;;;;;;11.45;6.22;;;4.50;99.90;;;;;;4998432;28;20034;-55
2023/02/05 02:51:14;;;;;;;16.65;7.13;;;4.50;99.90;;;;;;5012227;28;20211;-53
2023/02/05 02:53:43;;;;;;;18.98;6.10;;;4.60;99.90;;;;;;5011738;28;20463;-51
2023/02/05 02:56:12;;;;;;;18.70;7.50;;;4.70;99.90;;;;;;5011972;28;20026;-52
2023/02/05 02:58:53;;;;;;;17.40;7.20;;;4.70;99.90;;;;;;5012784;28;20319;-51
2023/02/05 03:01:22;;;;;;;16.95;6.72;;;4.80;99.90;;;;;;5012557;28;20018;-51
2023/02/05 03:04:01;;;;;;;10.95;6.03;;;4.90;99.90;;;;;;4994127;28;20392;-55
2023/02/05 03:06:29;;;;;;;20.23;6.85;;;4.80;99.90;;;;;;5013832;28;20022;-55
2023/02/05 03:08:59;;;;;;;15.15;7.30;;;4.80;99.90;;;;;;5013476;28;20493;-55
2023/02/05 03:11:25;;;;;;;16.02;7.03;;;4.80;99.90;;;;;;5012844;28;20034;-51
2023/02/05 03:13:53;;;;;;;15.35;6.75;;;4.80;99.90;;;;;;5012123;28;20029;-52
2023/02/05 03:16:19;;;;;;;15.05;7.05;;;4.80;99.90;;;;;;5011756;28;20036;-54
2023/02/05 03:18:45;;;;;;;26.80;8.75;;;4.70;99.90;;;;;;5011420;28;20420;-51
2023/02/05 03:21:23;;;;;;;18.23;8.13;;;4.60;99.90;;;;;;5011832;28;20060;-51
2023/02/05 03:23:49;;;;;;;13.07;7.63;;;4.60;99.90;;;;;;5011667;28;20052;-50
2023/02/05 03:26:23;;;;;;;12.75;5.97;;;4.60;99.90;;;;;;5011448;28;20335;-53
2023/02/05 03:28:49;;;;;;;12.32;6.38;;;4.60;99.90;;;;;;5011708;28;20030;-50
2023/02/05 03:31:46;;;;;;;16.23;6.53;;;4.60;99.90;;;;;;5011648;28;20092;-53
2023/02/05 03:34:27;;;;;;;9.77;5.90;;;4.60;99.90;;;;;;5011387;28;20033;-53
2023/02/05 03:37:18;;;;;;;12.35;6.03;;;4.60;99.90;;;;;;5011349;28;20414;-53
2023/02/05 03:39:59;;;;;;;12.13;6.85;;;4.60;99.90;;;;;;5011883;28;20026;-54
2023/02/05 03:42:45;;;;;;;18.05;5.72;;;4.60;99.90;;;;;;5011079;28;20073;-54
2023/02/05 03:45:33;;;;;;;9.63;5.70;;;4.50;99.90;;;;;;5011344;28;20018;-52
2023/02/05 03:48:03;;;;;;;12.55;6.28;;;4.50;99.90;;;;;;5011475;28;20025;-53
2023/02/05 03:50:37;;;;;;;18.10;6.82;;;4.50;99.90;;;;;;5011253;28;20111;-53
2023/02/05 03:53:13;;;;;;;12.20;5.95;;;4.40;99.90;;;;;;5011194;28;20176;-54
2023/02/05 03:55:45;;;;;;;13.43;6.00;;;4.30;99.90;;;;;;5011320;28;20489;-52
2023/02/05 03:58:21;;;;;;;11.77;6.43;;;4.30;99.90;;;;;;5011783;28;20045;-50
2023/02/05 04:00:47;;;;;;;19.05;6.63;;;4.30;99.90;;;;;;5015322;28;20511;-54
2023/02/05 04:03:14;;;;;;;11.75;6.00;;;4.30;99.90;;;;;;5014817;28;20045;-54
2023/02/05 04:05:39;;;;;;;11.73;6.07;;;4.40;99.90;;;;;;5013782;28;20026;-55
2023/02/05 04:08:05;;;;;;;13.02;5.90;;;4.40;99.90;;;;;;4997495;28;20076;-54
2023/02/05 04:10:30;;;;;;;16.65;6.25;;;4.50;99.90;;;;;;5015135;28;20022;-54
2023/02/05 04:12:56;;;;;;;11.88;5.85;;;4.50;99.90;;;;;;5014761;28;20045;-53
2023/02/05 04:15:21;;;;;;;10.65;6.22;;;4.60;99.90;;;;;;5014929;28;20030;-53
2023/02/05 04:17:47;;;;;;;12.27;6.38;;;4.60;99.90;;;;;;5014752;28;20036;-55
2023/02/05 04:20:13;;;;;;;13.77;6.82;;;4.70;99.90;;;;;;5014869;28;20080;-52
2023/02/05 04:22:38;;;;;;;16.85;7.30;;;4.70;99.90;;;;;;5014108;28;20393;-51
2023/02/05 04:25:04;;;;;;;16.63;6.72;;;4.80;99.90;;;;;;5014615;28;20093;-52
2023/02/05 04:27:29;;;;;;;15.68;7.65;;;4.90;99.90;;;;;;5014687;28;20029;-54
2023/02/05 04:29:55;;;;;;;15.95;8.00;;;4.90;99.90;;;;;;5014619;28;20026;-53
2023/02/05 04:32:20;;;;;;;12.77;7.68;;;4.80;99.90;;;;;;5014471;28;20030;-53
2023/02/05 04:34:46;;;;;;;12.75;6.28;;;4.90;99.90;;;;;;5014475;28;20029;-55
2023/02/05 04:37:11;;;;;;;12.50;6.60;;;4.90;99.90;;;;;;5014354;28;20092;-52
2023/02/05 04:39:37;;;;;;;12.48;6.28;;;4.90;99.90;;;;;;5014468;28;20501;-50
2023/02/05 04:42:03;;;;;;;12.48;6.95;;;4.80;99.90;;;;;;5014045;28;20057;-52
2023/02/05 04:44:28;;;;;;;20.58;8.40;;;4.90;99.90;;;;;;5014141;28;20022;-53
2023/02/05 04:46:54;;;;;;;15.00;7.97;;;4.90;99.90;;;;;;5014284;28;20017;-51
2023/02/05 04:49:19;;;;;;;13.40;7.70;;;4.90;99.90;;;;;;5014442;28;20108;-51
2023/02/05 04:51:45;;;;;;;15.35;7.82;;;5.00;99.90;;;;;;5014250;28;20096;-52
2023/02/05 04:54:11;;;;;;;19.13;9.05;;;5.00;99.90;;;;;;5013678;28;20038;-56
2023/02/05 04:56:37;;;;;;;15.25;7.60;;;5.00;99.90;;;;;;5014154;28;20514;-52
2023/02/05 04:59:03;;;;;;;20.40;8.00;;;5.00;99.90;;;;;;5014040;28;20038;-52
2023/02/05 05:01:29;;;;;;;17.45;7.88;;;5.00;99.90;;;;;;5014119;28;20022;-54
2023/02/05 05:03:54;;;;;;;11.20;6.80;;;5.10;99.90;;;;;;5012444;28;20026;-54
2023/02/05 05:06:20;;;;;;;20.98;8.13;;;5.00;99.90;;;;;;5014386;28;20033;-57
2023/02/05 05:08:45;;;;;;;19.58;8.02;;;5.00;99.90;;;;;;4996559;28;20057;-52
2023/02/05 05:11:14;;;;;;;13.27;7.65;;;5.00;99.90;;;;;;5013747;28;20041;-51
2023/02/05 05:13:40;;;;;;;15.43;7.68;;;4.90;99.90;;;;;;5013601;28;20037;-55
2023/02/05 05:16:07;;;;;;;18.20;7.18;;;4.80;99.90;;;;;;5013832;28;20095;-50
2023/02/05 05:18:33;;;;;;;18.27;7.32;;;4.80;99.90;;;;;;5013909;28;20067;-52
2023/02/05 05:21:00;;;;;;;16.17;6.75;;;4.80;99.90;;;;;;5013698;28;20025;-51
2023/02/05 05:23:25;;;;;;;16.77;7.57;;;4.80;99.90;;;;;;5013418;28;20026;-51
2023/02/05 05:25:51;;;;;;;17.35;7.47;;;4.90;99.90;;;;;;5013675;28;20187;-51
2023/02/05 05:28:17;;;;;;;23.33;8.60;;;4.80;99.90;;;;;;5013378;28;20038;-53
2023/02/05 05:30:44;;;;;;;18.55;7.55;;;4.80;99.90;;;;;;5013616;28;20026;-54
2023/02/05 05:33:10;;;;;;;21.10;7.45;;;4.80;99.90;;;;;;5013085;28;20498;-55
2023/02/05 05:35:36;;;;;;;17.23;7.75;;;4.80;99.90;;;;;;5013264;28;20048;-57
2023/02/05 05:38:03;;;;;;;25.88;8.82;;;4.80;99.90;;;;;;5013164;28;20030;-51
2023/02/05 05:46:00;;;;;;;14.40;7.22;;;4.70;99.90;;;;;;5013525;28;20084;-53
2023/02/05 05:48:25;;;;;;;15.73;7.45;;;4.70;99.90;;;;;;4995734;28;20085;-51
2023/02/05 05:50:51;;;;;;;16.33;7.80;;;4.70;99.90;;;;;;5013339;28;20026;-54
2023/02/05 05:53:16;;;;;;;17.08;7.97;;;4.80;99.90;;;;;;5012987;28;20026;-49
2023/02/05 05:55:42;;;;;;;12.65;7.95;;;4.80;99.90;;;;;;5012930;28;20086;-53
2023/02/05 05:58:08;;;;;;;19.95;7.97;;;4.80;99.90;;;;;;5012820;28;20037;-54
2023/02/05 06:00:35;;;;;;;17.38;8.15;;;4.70;99.90;;;;;;5012829;28;20525;-52
2023/02/05 06:03:00;;;;;;;16.15;8.15;;;4.60;99.90;;;;;;5012802;28;20026;-53
2023/02/05 06:05:26;;;;;;;12.63;7.00;;;4.50;99.90;;;;;;4995306;28;20021;-52
2023/02/05 06:07:51;;;;;;;15.88;8.00;;;4.50;99.90;;;;;;5012817;28;20026;-52
2023/02/05 06:10:17;;;;;;;14.05;7.53;;;4.50;99.90;;;;;;5012927;28;20460;-51
2023/02/05 06:12:43;;;;;;;16.55;8.20;;;4.60;99.90;;;;;;5012664;28;20100;-54
2023/02/05 06:15:10;;;;;;;20.67;8.70;;;4.60;99.90;;;;;;5012753;28;20030;-53
2023/02/05 06:17:36;;;;;;;16.35;7.68;;;4.60;99.90;;;;;;5012641;28;20033;-53
2023/02/05 06:20:01;;;;;;;14.63;7.80;;;4.70;99.90;;;;;;5012690;28;20486;-52
2023/02/05 06:22:27;;;;;;;14.50;7.82;;;4.80;99.90;;;;;;4993970;28;20021;-54
2023/02/05 06:24:53;;;;;;;17.48;8.43;;;4.80;99.90;;;;;;5012362;28;20501;-51
2023/02/05 06:27:18;;;;;;;16.17;8.32;;;4.80;99.90;;;;;;5012450;28;20064;-49
2023/02/05 06:29:44;;;;;;;19.15;7.97;;;4.70;99.90;;;;;;5012559;28;20041;-49
2023/02/05 06:32:09;;;;;;;19.73;8.15;;;4.70;99.90;;;;;;5011104;28;20017;-49
2023/02/05 06:34:35;;;;;;;13.75;7.43;;;4.70;99.90;;;;;;5011870;28;20497;-50
2023/02/05 06:37:00;;;;;;;24.30;8.77;;;4.60;99.90;;;;;;5012870;28;20127;-55
2023/02/05 06:39:26;;;;;;;15.82;7.88;;;4.60;99.90;;;;;;5012280;28;20036;-54
2023/02/05 06:41:51;;;;;;;18.33;8.45;;;4.60;99.90;;;;;;5012042;28;20400;-50
2023/02/05 06:44:17;;;;;;;18.10;8.48;;;4.70;99.90;;;;;;5012023;28;20080;-52
2023/02/05 06:46:42;;;;;;;15.52;8.60;;;4.60;99.90;;;;;;5012111;28;20440;-53
2023/02/05 06:49:08;;;;;;;18.70;9.05;;;4.50;99.90;;;;;;5010908;28;20062;-49
2023/02/05 06:51:33;;;;;;;15.20;8.77;;;4.50;99.90;;;;;;5012020;28;20080;-53
2023/02/05 06:53:59;;;;;;;18.65;9.32;;;4.40;99.90;;;;;;4994144;28;20076;-54
2023/02/05 06:56:25;;;;;;;18.20;8.75;;;4.40;99.90;;;;;;5011968;28;20033;-54
2023/02/05 06:58:50;;;;;;;20.60;8.23;;;4.40;99.90;;;;;;4994287;28;20484;-46
2023/02/05 07:01:16;;;;;;;21.23;9.15;;;4.40;99.90;;;;;;5010765;28;20034;-50
2023/02/05 07:03:42;;;;;;;20.02;8.27;;;4.40;99.90;;;;;;5011485;28;20017;-51
2023/02/05 07:06:07;;;;;;;14.07;8.90;;;4.40;99.90;;;;;;5010513;28;20068;-52
2023/02/05 07:08:33;;;;;;;21.55;8.77;;;4.50;99.90;;;;;;5011963;28;20026;-53
2023/02/05 07:10:59;;;;;;;13.18;8.23;;;4.60;99.90;;;;;;5011907;28;20036;-51
2023/02/05 07:13:25;;;;;;;14.18;7.28;;;4.70;99.90;;;;;;5011384;28;20025;-53
2023/02/05 07:15:50;;;;;;;14.98;8.45;;;4.70;99.90;;;;;;5011629;28;20425;-51
2023/02/05 07:18:16;;;;;;;15.52;8.85;;;4.70;99.90;;;;;;5011637;28;20490;-52
2023/02/05 07:20:41;;;;;;;16.92;9.55;;;4.70;99.90;;;;;;5011880;28;20022;-51
2023/02/05 07:23:07;;;;;;;17.55;9.60;;;4.70;99.90;;;;;;4993688;28;20024;-51
2023/02/05 07:25:36;;;;;;;15.32;8.43;;;4.70;99.90;;;;;;5010297;28;20028;-54
2023/02/05 07:28:04;;;;;;;16.02;8.82;;;4.70;99.90;;;;;;5011502;28;20029;-54
2023/02/05 07:30:30;;;;;;;17.40;8.75;;;4.70;99.90;;;;;;5011687;28;20044;-54
2023/02/05 07:32:55;;;;;;;17.48;9.27;;;4.70;99.90;;;;;;5013050;28;20368;-54
2023/02/05 07:35:21;;;;;;;13.98;8.40;;;4.60;99.90;;;;;;4997351;28;20030;-53
2023/02/05 07:37:46;;;;;;;21.20;10.82;;;4.50;99.90;;;;;;5014178;28;20034;-49
2023/02/05 07:40:12;;;;;;;20.50;9.45;;;4.50;99.90;;;;;;4998130;28;20363;-52
2023/02/05 07:42:37;;;;;;;13.77;9.02;;;4.50;99.90;;;;;;5013791;28;20026;-53
2023/02/05 07:45:03;;;;;;;14.25;8.85;;;4.50;99.90;;;;;;5015330;28;20022;-55
2023/02/05 07:47:29;;;;;;;15.40;8.85;;;4.50;99.90;;;;;;5015369;28;20018;-54
2023/02/05 07:49:54;;;;;;;12.52;9.20;;;4.50;99.90;;;;;;5015527;28;20516;-50
2023/02/05 07:52:20;;;;;;;14.40;8.00;;;4.50;99.90;;;;;;5015180;28;20425;-53
2023/02/05 07:54:46;;;;;;;15.07;8.23;;;4.60;99.90;;;;;;5015264;28;20021;-53
2023/02/05 07:57:11;;;;;;;14.65;8.63;;;4.70;99.90;;;;;;5015106;28;20389;-53
2023/02/05 07:59:37;;;;;;;17.10;8.25;;;4.70;99.90;;;;;;5015183;28;20428;-52
2023/02/05 08:02:03;;;;;;;18.30;8.35;;;4.80;99.90;;;;;;4997498;28;20018;-54
2023/02/05 08:04:28;;;;;;;12.57;8.88;;;4.80;99.90;;;;;;5015077;28;20022;-51
2023/02/05 08:06:54;;;;;;;17.30;9.02;;;4.90;99.90;;;;;;5014955;28;20527;-52
2023/02/05 08:09:20;;;;;;;16.40;8.30;;;5.00;99.90;;;;;;5014665;28;20104;-55
2023/02/05 08:11:45;;;;;;;14.10;7.97;;;5.00;99.90;;;;;;5015056;28;20033;-51
2023/02/05 08:14:11;;;;;;;15.35;7.97;;;4.90;99.90;;;;;;5014933;28;20441;-56
2023/02/05 08:16:36;;;;;;;15.32;8.80;;;4.90;99.90;;;;;;5014857;28;20084;-51
2023/02/05 08:19:02;;;;;;;14.95;8.65;;;4.80;99.90;;;;;;5014967;28;20440;-54
2023/02/05 08:21:28;;;;;;;16.92;8.65;;;4.80;99.90;;;;;;5014901;28;20506;-55
2023/02/05 08:23:56;;;;;;;16.50;10.35;;;4.80;99.90;;;;;;5014584;28;20026;-51
2023/02/05 08:26:21;;;;;;;13.77;8.50;;;4.80;99.90;;;;;;5014882;28;20044;-53
2023/02/05 08:28:47;;;;;;;13.10;7.82;;;4.80;99.90;;;;;;5014925;28;20442;-55
2023/02/05 08:31:17;;;;;;;16.45;8.43;;;4.80;99.90;;;;;;5014953;28;20092;-57
2023/02/05 08:33:42;;;;;;;20.30;9.23;;;4.80;99.90;;;;;;5014540;28;20021;-53
2023/02/05 08:36:09;;;;;;;16.35;9.20;;;4.90;99.90;;;;;;5014499;28;20040;-51
2023/02/05 08:38:34;;;;;;;16.20;9.10;;;5.00;99.90;;;;;;5014579;28;20539;-55
2023/02/05 08:41:14;;;;;;;20.13;9.40;;;5.10;99.90;;;;;;5014655;28;20061;-51
2023/02/05 08:43:49;;;;;;;17.00;8.93;;;5.10;99.90;;;;;;5014044;28;20018;-50
2023/02/05 08:46:18;;;;;;;;;;;5.10;99.90;;;;;;5014789;28;20073;-54
2023/02/05 08:48:43;;;;;;;22.92;9.23;;;5.00;99.90;;;;;;5014386;28;19905;-54
2023/02/05 08:51:10;;;;;;;14.45;9.00;;;5.00;99.90;;;;;;5014457;28;20018;-55
2023/02/05 08:53:35;;;;;;;21.75;9.68;;;5.00;99.90;;;;;;5013997;28;20109;-57
2023/02/05 08:56:02;;;;;;;17.45;8.93;;;5.00;99.90;;;;;;5014491;28;20129;-51
2023/02/05 08:58:28;;;;;;;15.48;8.77;;;5.10;99.90;;;;;;5014272;28;20053;-57
2023/02/05 09:01:11;;;;;;;14.30;8.63;;;5.10;99.90;;;;;;5014174;28;20111;-56
2023/02/05 09:03:37;;;;;;;13.00;8.73;;;5.10;99.90;;;;;;4996288;28;20022;-55
2023/02/05 09:06:08;;;;;;;15.02;8.45;;;5.20;99.90;;;;;;5014028;28;20018;-52
2023/02/05 09:08:34;;;;;;;17.83;9.88;;;5.20;99.90;;;;;;5014018;28;20378;-54
2023/02/05 09:11:00;;;;;;;14.50;8.10;;;5.20;99.90;;;;;;5012744;28;20117;-53
2023/02/05 09:13:25;;;;;;;13.80;8.80;;;5.20;99.90;;;;;;5013742;28;20032;-53
2023/02/05 09:15:51;;;;;;;15.90;8.43;;;5.20;99.90;;;;;;5013572;28;20037;-56
2023/02/05 09:18:17;;;;;;;19.05;9.45;;;5.30;99.90;;;;;;4996389;28;20040;-51
2023/02/05 09:20:44;;;;;;;20.63;9.38;;;5.30;99.90;;;;;;5014232;28;20436;-50
2023/02/05 09:23:11;;;;;;;15.15;8.85;;;5.30;99.90;;;;;;5013517;28;20072;-52
2023/02/05 09:25:38;;;;;;;17.00;9.63;;;5.20;99.90;;;;;;5013578;28;20371;-51
2023/02/05 09:28:08;;;;;;;19.45;9.20;;;5.10;99.90;;;;;;5013802;28;20038;-52
2023/02/05 09:30:34;;;;;;;17.35;9.60;;;5.10;99.90;;;;;;5013566;28;20028;-53
2023/02/05 09:33:00;;;;;;;26.13;11.48;;;5.00;99.90;;;;;;5013275;28;20493;-49
2023/02/05 09:35:25;;;;;;;21.27;9.15;;;5.10;99.90;;;;;;5013295;28;20034;-50
2023/02/05 09:37:51;;;;;;;16.75;8.57;;;5.10;99.90;;;;;;5013821;28;20038;-51
2023/02/05 09:40:23;;;;;;;16.77;8.73;;;5.10;99.90;;;;;;5012309;28;20022;-52
2023/02/05 09:43:02;;;;;;;14.15;9.55;;;5.10;99.90;;;;;;5012898;28;20037;-51
2023/02/05 09:45:47;;;;;;;18.00;10.52;;;5.10;99.90;;;;;;5013377;28;20018;-53
2023/02/05 09:48:28;;;;;;;19.67;10.40;;;5.10;99.90;;;;;;5013271;28;20050;-53
2023/02/05 09:50:56;;;;;;;17.23;11.40;;;5.10;99.90;;;;;;5013245;28;20046;-53
2023/02/05 09:53:22;;;;;;;20.75;10.60;;;5.00;99.90;;;;;;5012957;28;20124;-55
2023/02/05 09:55:49;;;;;;;25.45;11.57;;;5.00;99.90;;;;;;5013124;28;20030;-57
2023/02/05 09:58:18;;;;;;;16.73;11.38;;;5.00;99.90;;;;;;5013299;28;20079;-52
2023/02/05 10:00:51;;;;;;;25.98;10.80;;;5.00;99.90;;;;;;5013448;28;20097;-53
2023/02/05 10:03:40;;;;;;;19.50;11.02;;;4.90;99.90;;;;;;5012812;28;20018;-54
2023/02/05 10:06:09;;;;;;;16.88;10.70;;;5.00;99.90;;;;;;5013033;28;20414;-55
2023/02/05 10:08:44;;;;;;;24.25;12.48;;;5.00;99.90;;;;;;5013067;28;20489;-50
2023/02/05 10:11:33;;;;;;;18.45;11.20;;;5.00;99.90;;;;;;5013106;28;20114;-52
2023/02/05 10:14:46;;;;;;;22.75;11.68;;;5.00;99.90;;;;;;5012717;28;20113;-53
2023/02/05 10:17:41;;;;;;;19.60;10.77;;;5.10;99.90;;;;;;4914275;29;20147;-49
2023/02/05 10:20:16;;;;;;;18.50;11.80;;;5.10;99.90;;;;;;5012157;28;20045;-51
2023/02/05 10:23:05;;;;;;;22.20;12.50;;;5.00;99.90;;;;;;5024994;28;20392;-50
2023/02/05 10:26:05;;;;;;;18.65;10.90;;;5.00;99.90;;;;;;5031197;28;20022;-53
2023/02/05 10:28:42;;;;;;;20.63;11.73;;;5.00;99.90;;;;;;5032671;28;20026;-48
2023/02/05 10:31:39;;;;;;;24.35;13.15;;;5.10;99.90;;;;;;5014637;28;20037;-48
2023/02/05 10:34:25;;;;;;;25.85;12.77;;;5.10;99.90;;;;;;5013722;28;20044;-56
2023/02/05 10:36:53;;;;;;;25.27;12.48;;;5.10;99.90;;;;;;5019406;28;20083;-52
2023/02/05 10:39:21;;;;;;;20.10;12.63;;;5.10;99.90;;;;;;5002967;28;20128;-58
2023/02/05 10:41:57;;;;;;;24.95;13.73;;;5.10;99.90;;;;;;5021379;28;20393;-53
2023/02/05 10:44:58;;;;;;;24.33;12.10;;;5.10;99.90;;;;;;5005208;28;20032;-50
2023/02/05 10:47:43;;;;;;;27.40;12.60;;;5.10;99.90;;;;;;5006388;28;20704;-53
2023/02/05 10:50:24;;;;;;;22.98;12.90;;;5.10;99.90;;;;;;5023470;28;20458;-57
2023/02/05 10:52:50;;;;;;;22.00;12.05;;;5.10;99.90;;;;;;5022231;28;20367;-57
2023/02/05 10:55:16;;;;;;;20.35;13.10;;;5.10;99.90;;;;;;5020924;28;20472;-57
2023/02/05 10:57:41;;;;;;;20.92;12.77;;;5.20;99.90;;;;;;5004187;28;20075;-64
2023/02/05 11:00:19;;;;;;;21.63;12.95;;;5.20;99.90;;;;;;5004426;28;20017;-61
2023/02/05 11:02:51;;;;;;;29.02;14.07;;;5.30;99.90;;;;;;5020844;28;20045;-62
2023/02/05 11:05:41;;;;;;;24.48;13.95;;;5.30;99.90;;;;;;5003149;28;20508;-64
2023/02/05 11:08:40;;;;;;;22.23;13.38;;;5.30;99.90;;;;;;5007917;28;20068;-63
2023/02/05 11:11:16;;;;;;;22.35;14.63;;;5.30;99.90;;;;;;5005033;28;20041;-63
2023/02/05 11:13:49;;;;;;;21.77;13.40;;;5.20;99.90;;;;;;5020758;28;20421;-63
2023/02/05 11:16:14;;;;;;;21.95;13.63;;;5.20;99.90;;;;;;5021763;28;20138;-58
2023/02/05 11:18:44;;;;;;;18.98;12.98;;;5.20;99.90;;;;;;5022056;28;20109;-60
2023/02/05 11:21:10;;;;;;;23.33;13.95;;;5.20;99.90;;;;;;5021741;28;20871;-63
2023/02/05 11:23:38;;;;;;;24.55;14.38;;;5.30;99.90;;;;;;5021963;28;20067;-61
2023/02/05 11:26:20;;;;;;;22.80;13.82;;;5.30;99.90;;;;;;5022395;28;20620;-64
2023/02/05 11:28:46;;;;;;;25.00;14.70;;;5.30;99.90;;;;;;5022842;28;20091;-62
2023/02/05 11:31:24;;;;;;;26.77;14.57;;;5.30;99.90;;;;;;5021928;28;20075;-58
2023/02/05 11:33:50;;;;;;;20.77;14.80;;;5.30;99.90;;;;;;5020853;28;20018;-61
2023/02/05 11:36:21;;;;;;;18.05;13.00;;;5.30;99.90;;;;;;5020716;28;20060;-60
2023/02/05 11:38:51;;;;;;;23.42;14.05;;;5.30;99.90;;;;;;5021617;28;20060;-62
2023/02/05 11:41:26;;;;;;;21.38;13.93;;;5.30;99.90;;;;;;5020993;28;20017;-57
2023/02/05 11:43:53;;;;;;;18.27;12.53;;;5.30;99.90;;;;;;5018901;28;20038;-60
2023/02/05 11:46:21;;;;;;;20.25;13.50;;;5.30;99.90;;;;;;5021305;28;20033;-62
2023/02/05 11:48:59;;;;;;;16.30;13.68;;;5.30;99.90;;;;;;5021038;28;20033;-63
2023/02/05 11:51:43;;;;;;;26.45;14.30;;;5.40;99.90;;;;;;5021732;28;20044;-62
2023/02/05 11:54:14;;;;;;;21.83;14.43;;;5.50;99.90;;;;;;5021635;28;20026;-57
2023/02/05 11:56:40;;;;;;;19.90;14.50;;;5.50;99.90;;;;;;5022222;28;20120;-54
2023/02/05 11:59:20;;;;;;;18.38;13.40;;;5.50;99.90;;;;;;5023797;28;20089;-59
2023/02/05 12:01:46;;;;;;;20.88;13.82;;;5.60;99.90;;;;;;5024943;28;20083;-56
2023/02/05 12:04:11;;;;;;;19.27;13.70;;;5.60;99.90;;;;;;5022333;28;20030;-56
2023/02/05 12:06:53;;;;;;;16.50;12.98;;;5.60;99.90;;;;;;5005629;28;20041;-58
2023/02/05 12:09:23;;;;;;;17.42;12.85;;;5.60;99.90;;;;;;5022512;28;20576;-54
2023/02/05 12:12:05;;;;;;;18.70;13.20;;;5.60;99.90;;;;;;5021457;28;20037;-55
2023/02/05 12:14:45;;;;;;;16.70;13.00;;;5.50;99.90;;;;;;5021651;28;20029;-53
2023/02/05 12:17:30;;;;;;;20.23;13.63;;;5.60;99.90;;;;;;5027165;28;20041;-49
2023/02/05 12:20:04;;;;;;;16.17;13.18;;;5.50;99.90;;;;;;5030892;28;20100;-52
2023/02/05 12:22:55;;;;;;;21.80;13.70;;;5.50;99.90;;;;;;5035941;28;20025;-53
2023/02/05 12:25:28;;;;;;;31.95;23.30;;;5.50;99.90;;;;;;5035076;28;20026;-56
2023/02/05 12:28:03;;;;;;;33.58;24.63;;;5.60;99.90;;;;;;5016921;28;20535;-51
2023/02/05 12:30:43;;;;;;;24.23;18.80;;;5.60;99.90;;;;;;5034579;28;20026;-50
2023/02/05 12:33:12;;;;;;;20.33;15.65;;;5.60;99.90;;;;;;5018749;28;20018;-53
2023/02/05 12:35:43;;;;;;;13.95;12.07;;;5.60;99.90;;;;;;5034980;28;20063;-50
2023/02/05 12:38:20;;;;;;;18.83;13.82;;;5.60;99.90;;;;;;5034362;28;20087;-55
2023/02/05 12:41:04;;;;;;;17.73;13.82;;;5.60;99.90;;;;;;5034169;28;20022;-51
2023/02/05 12:43:40;;;;;;;21.25;14.70;;;5.50;99.90;;;;;;5033939;28;20025;-54
2023/02/05 12:46:20;;;;;;;17.48;14.20;;;5.50;99.90;;;;;;5034130;28;20036;-53
2023/02/05 12:48:53;;;;;;;17.42;13.57;;;5.40;99.90;;;;;;5044296;28;20034;-57
2023/02/05 12:51:48;;;;;;;16.70;13.20;;;5.50;99.90;;;;;;5045718;28;20442;-60
2023/02/05 12:54:32;;;;;;;19.20;14.23;;;5.50;99.90;;;;;;5038922;28;20042;-60
2023/02/05 12:57:08;;;;;;;17.35;14.23;;;5.40;99.90;;;;;;5048590;28;20017;-57
2023/02/05 12:59:46;;;;;;;19.95;14.25;;;5.50;99.90;;;;;;5031486;28;20033;-59
2023/02/05 13:02:20;;;;;;;21.55;15.60;;;5.50;99.90;;;;;;5046635;28;20053;-57
2023/02/05 13:05:20;;;;;;;17.55;12.93;;;5.60;99.90;;;;;;5046919;28;20022;-58
2023/02/05 13:07:54;;;;;;;16.92;13.05;;;5.70;99.90;;;;;;5022101;28;20029;-62